West Unity, Ohio
Current Conditions -  °F | °C
As of 1:35 PM on Thursday 27 Nov 2014 (Local Time) from KUSE Reporting Station
Broken Clouds Broken Clouds  
Wind Chill: 22°   Ceiling: 3900
Heat Index: 32°   Visibility: 10mi
Dew Point: 25°   Wind: 14mph
Humidity: 75%   Direction: 260°W
Pressure: 30.18"   Gusts: NA
Location:  41.59°N, 84.43°W
Report Text: KUSE 271835Z AUTO 26012KT 10SM FEW020 SCT034 BKN039 00/M04 A3018 RMK AO2
Loading
Personal Weather Stations






























Interactive Weather Map New forecast layout! Learn more

10-Day Weather Forecast

Advertisements
Track Severe Weather on mobile